Time;durP1;ratioP1;P1;durP2;ratioP2;P2;SDS_P1;SDS_P2;PMS_P1;PMS_P2;Temp;Humidity;BMP_temperature;BMP_pressure;BME280_temperature;BME280_humidity;BME280_pressure;Samples;Min_cycle;Max_cycle;Signal;HPM_P1;HPM_P2
2021/01/29 00:01:00;;;;;;;0.50;0.50;;;;;;;;;;5040087;28;20179;-64
2021/01/29 00:03:28;;;;;;;0.70;0.70;;;;;;;;;;5040985;28;20196;-63
2021/01/29 00:05:55;;;;;;;0.82;0.80;;;;;;;;;;5039599;28;20174;-64
2021/01/29 00:08:22;;;;;;;0.40;0.40;;;;;;;;;;5039991;28;20171;-64
2021/01/29 00:10:49;;;;;;;0.50;0.50;;;;;;;;;;5040981;28;20245;-63
2021/01/29 00:13:15;;;;;;;0.40;0.40;;;;;;;;;;5040131;28;20203;-63
2021/01/29 00:15:42;;;;;;;0.90;0.90;;;;;;;;;;5039800;28;20566;-63
2021/01/29 00:18:09;;;;;;;0.68;0.60;;;;;;;;;;5041167;28;20175;-63
2021/01/29 00:20:35;;;;;;;0.47;0.47;;;;;;;;;;5039196;28;20165;-63
2021/01/29 00:23:01;;;;;;;0.55;0.55;;;;;;;;;;5039927;28;20204;-63
2021/01/29 00:25:37;;;;;;;0.40;0.40;;;;;;;;;;5040899;28;20217;-63
2021/01/29 00:28:04;;;;;;;0.80;0.80;;;;;;;;;;5070429;28;20225;-63
2021/01/29 00:30:30;;;;;;;0.68;0.68;;;;;;;;;;5040735;28;20697;-63
2021/01/29 00:32:57;;;;;;;0.50;0.50;;;;;;;;;;5039580;28;20604;-63
2021/01/29 00:35:24;;;;;;;0.40;0.40;;;;;;;;;;5039621;28;20638;-63
2021/01/29 00:37:50;;;;;;;0.40;0.40;;;;;;;;;;5041057;28;20226;-63
2021/01/29 00:40:16;;;;;;;0.70;0.70;;;;;;;;;;5039235;28;20198;-63
2021/01/29 00:42:42;;;;;;;0.60;0.60;;;;;;;;;;5039339;28;20645;-63
2021/01/29 00:45:10;;;;;;;0.47;0.47;;;;;;;;;;5040793;28;20196;-63
2021/01/29 00:47:36;;;;;;;0.40;0.40;;;;;;;;;;5039276;28;20176;-63
2021/01/29 00:50:04;;;;;;;0.40;0.40;;;;;;;;;;5039460;28;20221;-63
2021/01/29 00:52:30;;;;;;;0.50;0.50;;;;;;;;;;5044044;28;20600;-62
2021/01/29 00:54:56;;;;;;;0.55;0.55;;;;;;;;;;5042872;28;20575;-63
2021/01/29 00:57:22;;;;;;;0.50;0.50;;;;;;;;;;5045047;28;20183;-63
2021/01/29 00:59:48;;;;;;;0.40;0.40;;;;;;;;;;5054151;28;20182;-63
2021/01/29 01:02:14;;;;;;;0.40;0.40;;;;;;;;;;5054179;28;20196;-63
2021/01/29 01:04:40;;;;;;;0.43;0.43;;;;;;;;;;5047770;28;20463;-63
2021/01/29 01:07:06;;;;;;;0.85;0.85;;;;;;;;;;5052332;28;20270;-64
2021/01/29 01:09:32;;;;;;;0.43;0.43;;;;;;;;;;5040754;28;20206;-63
2021/01/29 01:11:58;;;;;;;0.50;0.50;;;;;;;;;;5041623;28;20499;-63
2021/01/29 01:14:24;;;;;;;0.40;0.40;;;;;;;;;;5044075;28;20410;-63
2021/01/29 01:16:50;;;;;;;0.40;0.40;;;;;;;;;;5043302;28;20186;-64
2021/01/29 01:19:16;;;;;;;0.40;0.40;;;;;;;;;;5041684;28;20222;-64
2021/01/29 01:21:42;;;;;;;0.50;0.50;;;;;;;;;;5042053;28;20175;-64
2021/01/29 01:24:09;;;;;;;0.40;0.40;;;;;;;;;;5042670;28;20235;-64
2021/01/29 01:26:35;;;;;;;0.50;0.50;;;;;;;;;;5043549;28;20651;-64
2021/01/29 01:29:01;;;;;;;0.40;0.40;;;;;;;;;;5041604;28;20304;-63
2021/01/29 01:31:27;;;;;;;0.40;0.40;;;;;;;;;;5045189;28;20202;-63
2021/01/29 01:33:53;;;;;;;0.87;0.87;;;;;;;;;;5043267;28;20277;-64
2021/01/29 01:36:19;;;;;;;0.40;0.40;;;;;;;;;;5041621;28;20494;-63
2021/01/29 01:38:45;;;;;;;0.60;0.60;;;;;;;;;;5042258;28;20197;-63
2021/01/29 01:41:11;;;;;;;0.50;0.50;;;;;;;;;;5041950;28;20213;-64
2021/01/29 01:43:38;;;;;;;0.30;0.30;;;;;;;;;;5038553;28;20209;-63
2021/01/29 01:46:05;;;;;;;0.40;0.40;;;;;;;;;;5026094;28;20173;-63
2021/01/29 01:48:40;;;;;;;0.40;0.40;;;;;;;;;;5041708;28;20180;-63
2021/01/29 01:51:07;;;;;;;0.30;0.30;;;;;;;;;;5041797;28;20202;-63
2021/01/29 01:53:37;;;;;;;0.40;0.40;;;;;;;;;;5041058;28;20203;-63
2021/01/29 01:56:05;;;;;;;0.88;0.77;;;;;;;;;;5041181;28;20176;-63
2021/01/29 01:58:32;;;;;;;0.65;0.65;;;;;;;;;;5041606;28;20540;-64
2021/01/29 02:00:58;;;;;;;0.45;0.45;;;;;;;;;;5040696;28;20207;-64
2021/01/29 02:03:29;;;;;;;2.88;1.05;;;;;;;;;;5042941;28;20193;-63
2021/01/29 02:05:56;;;;;;;0.30;0.30;;;;;;;;;;5041320;28;20675;-64
2021/01/29 02:08:22;;;;;;;0.50;0.50;;;;;;;;;;5043558;28;20191;-63
2021/01/29 02:10:49;;;;;;;0.52;0.52;;;;;;;;;;5043526;28;20683;-63
2021/01/29 02:13:15;;;;;;;0.60;0.60;;;;;;;;;;5034597;28;20205;-64
2021/01/29 02:15:43;;;;;;;0.40;0.40;;;;;;;;;;5053154;28;20179;-64
2021/01/29 02:18:16;;;;;;;0.43;0.43;;;;;;;;;;5052699;28;20642;-64
2021/01/29 02:20:42;;;;;;;0.30;0.30;;;;;;;;;;5051434;28;20199;-64
2021/01/29 02:23:27;;;;;;;0.50;0.50;;;;;;;;;;5048168;28;20202;-63
2021/01/29 02:26:21;;;;;;;0.40;0.40;;;;;;;;;;5052752;28;20289;-64
2021/01/29 02:28:56;;;;;;;0.30;0.30;;;;;;;;;;5031900;28;20183;-64
2021/01/29 02:31:41;;;;;;;0.40;0.40;;;;;;;;;;5032680;28;20581;-64
2021/01/29 02:34:27;;;;;;;0.50;0.50;;;;;;;;;;5036691;28;20216;-63
2021/01/29 02:37:02;;;;;;;0.60;0.60;;;;;;;;;;5042073;28;20283;-64
2021/01/29 02:39:48;;;;;;;0.50;0.50;;;;;;;;;;5051665;28;20187;-64
2021/01/29 02:42:25;;;;;;;0.40;0.40;;;;;;;;;;5051830;28;20203;-64
2021/01/29 02:44:57;;;;;;;0.50;0.50;;;;;;;;;;5052133;28;20292;-63
2021/01/29 02:47:28;;;;;;;0.50;0.50;;;;;;;;;;5051979;28;20180;-64
2021/01/29 02:49:57;;;;;;;0.40;0.40;;;;;;;;;;5051899;28;20179;-64
2021/01/29 02:52:30;;;;;;;0.63;0.63;;;;;;;;;;5051648;28;20249;-64
2021/01/29 02:55:02;;;;;;;0.30;0.30;;;;;;;;;;5051175;28;20205;-64
2021/01/29 02:57:31;;;;;;;0.88;0.50;;;;;;;;;;5051646;28;20179;-64
2021/01/29 03:00:09;;;;;;;0.73;0.45;;;;;;;;;;5051317;28;20238;-64
2021/01/29 03:02:39;;;;;;;0.40;0.40;;;;;;;;;;5051775;28;20256;-64
2021/01/29 03:05:10;;;;;;;0.60;0.60;;;;;;;;;;5051411;28;20745;-64
2021/01/29 03:08:02;;;;;;;0.40;0.40;;;;;;;;;;5051273;28;20221;-64
2021/01/29 03:10:47;;;;;;;0.40;0.40;;;;;;;;;;5047629;28;20198;-64
2021/01/29 03:13:16;;;;;;;0.73;0.73;;;;;;;;;;5051509;28;20642;-63
2021/01/29 03:15:45;;;;;;;2.35;2.25;;;;;;;;;;5051196;28;20187;-64
2021/01/29 03:18:17;;;;;;;0.52;0.50;;;;;;;;;;5051665;28;20186;-63
2021/01/29 03:20:50;;;;;;;0.50;0.50;;;;;;;;;;5050651;28;20180;-64
2021/01/29 03:23:19;;;;;;;0.40;0.40;;;;;;;;;;5051273;28;20732;-64
2021/01/29 03:25:48;;;;;;;0.40;0.40;;;;;;;;;;5050803;28;20198;-64
2021/01/29 03:28:16;;;;;;;0.63;0.55;;;;;;;;;;5051443;28;20710;-64
2021/01/29 03:30:46;;;;;;;3.45;0.65;;;;;;;;;;5050513;28;20604;-64
2021/01/29 03:33:12;;;;;;;0.52;0.52;;;;;;;;;;5051319;28;20591;-64
2021/01/29 03:35:45;;;;;;;0.40;0.40;;;;;;;;;;5050319;28;20214;-64
2021/01/29 03:38:11;;;;;;;0.40;0.40;;;;;;;;;;5031294;28;20184;-64
2021/01/29 03:40:44;;;;;;;0.40;0.40;;;;;;;;;;5039187;28;20552;-64
2021/01/29 03:43:22;;;;;;;0.40;0.40;;;;;;;;;;5050942;28;20491;-64
2021/01/29 03:45:50;;;;;;;0.47;0.47;;;;;;;;;;5050905;28;20215;-64
2021/01/29 03:48:25;;;;;;;0.35;0.35;;;;;;;;;;5050880;28;20262;-64
2021/01/29 03:50:54;;;;;;;0.50;0.50;;;;;;;;;;5050768;28;20175;-64
2021/01/29 03:53:40;;;;;;;0.50;0.50;;;;;;;;;;5049457;28;20214;-64
2021/01/29 03:56:24;;;;;;;0.43;0.43;;;;;;;;;;5051195;28;20180;-64
2021/01/29 03:58:57;;;;;;;0.50;0.50;;;;;;;;;;5050472;28;20551;-64
2021/01/29 04:01:28;;;;;;;0.40;0.40;;;;;;;;;;5051016;28;20195;-63
2021/01/29 04:04:06;;;;;;;0.50;0.50;;;;;;;;;;5050450;28;20295;-64
2021/01/29 04:06:39;;;;;;;0.40;0.40;;;;;;;;;;5050761;28;20524;-64
2021/01/29 04:09:14;;;;;;;0.40;0.40;;;;;;;;;;5050467;28;20260;-63
2021/01/29 04:11:44;;;;;;;0.50;0.50;;;;;;;;;;5039105;28;20186;-63
2021/01/29 04:14:13;;;;;;;0.40;0.40;;;;;;;;;;5051039;28;20191;-63
2021/01/29 04:16:41;;;;;;;0.50;0.50;;;;;;;;;;5050854;28;20259;-62
2021/01/29 04:19:16;;;;;;;0.40;0.40;;;;;;;;;;5050745;28;20236;-64
2021/01/29 04:21:52;;;;;;;0.40;0.40;;;;;;;;;;5050854;28;20286;-64
2021/01/29 04:24:44;;;;;;;0.40;0.40;;;;;;;;;;5051026;28;20222;-64
2021/01/29 04:27:13;;;;;;;0.40;0.40;;;;;;;;;;5050265;28;20200;-64
2021/01/29 04:29:45;;;;;;;0.40;0.40;;;;;;;;;;5054506;28;20214;-63
2021/01/29 04:32:14;;;;;;;0.40;0.40;;;;;;;;;;5054852;28;20274;-64
2021/01/29 04:34:41;;;;;;;0.40;0.40;;;;;;;;;;5054587;28;20188;-64
2021/01/29 04:37:11;;;;;;;0.40;0.40;;;;;;;;;;5054469;28;20184;-64
2021/01/29 04:39:42;;;;;;;0.60;0.60;;;;;;;;;;5053895;28;20188;-64
2021/01/29 04:45:00;;;;;;;0.40;0.40;;;;;;;;;;5067460;22;20264;-65
2021/01/29 04:47:41;;;;;;;0.50;0.50;;;;;;;;;;5054428;28;20259;-65
2021/01/29 04:50:16;;;;;;;0.40;0.40;;;;;;;;;;5053571;28;20180;-65
2021/01/29 04:52:42;;;;;;;0.40;0.40;;;;;;;;;;5054383;28;20330;-65
2021/01/29 04:55:26;;;;;;;0.50;0.50;;;;;;;;;;5041372;28;20271;-65
2021/01/29 04:58:04;;;;;;;0.40;0.40;;;;;;;;;;5035785;28;20442;-65
2021/01/29 05:00:50;;;;;;;0.60;0.60;;;;;;;;;;5050466;28;20766;-64
2021/01/29 05:03:40;;;;;;;0.40;0.40;;;;;;;;;;5054053;28;20582;-65
2021/01/29 05:06:06;;;;;;;0.40;0.40;;;;;;;;;;5009930;28;20211;-65
2021/01/29 05:08:46;;;;;;;0.65;0.65;;;;;;;;;;5034080;28;20259;-65
2021/01/29 05:11:27;;;;;;;0.45;0.45;;;;;;;;;;5033365;28;20213;-65
2021/01/29 05:14:11;;;;;;;0.40;0.40;;;;;;;;;;5017739;28;20257;-65
2021/01/29 05:16:48;;;;;;;0.40;0.40;;;;;;;;;;5025457;28;20227;-65
2021/01/29 05:19:39;;;;;;;0.30;0.30;;;;;;;;;;5026796;28;20552;-65
2021/01/29 05:22:15;;;;;;;0.40;0.40;;;;;;;;;;5038152;28;20254;-65
2021/01/29 05:24:59;;;;;;;0.30;0.30;;;;;;;;;;5053018;28;20748;-65
2021/01/29 05:27:31;;;;;;;0.65;0.65;;;;;;;;;;5047166;28;20200;-64
2021/01/29 05:30:15;;;;;;;0.30;0.30;;;;;;;;;;5033463;28;20218;-64
2021/01/29 05:32:49;;;;;;;0.50;0.50;;;;;;;;;;5039415;28;20708;-65
2021/01/29 05:35:18;;;;;;;0.30;0.30;;;;;;;;;;5033763;28;20529;-65
2021/01/29 05:38:03;;;;;;;0.30;0.30;;;;;;;;;;5033767;28;20603;-64
2021/01/29 05:40:42;;;;;;;0.30;0.30;;;;;;;;;;5033374;28;20591;-65
2021/01/29 05:43:11;;;;;;;0.40;0.40;;;;;;;;;;5033629;28;20702;-65
2021/01/29 05:46:09;;;;;;;0.30;0.30;;;;;;;;;;5033429;28;20585;-65
2021/01/29 05:48:38;;;;;;;0.40;0.40;;;;;;;;;;5000295;28;20198;-65
2021/01/29 05:51:19;;;;;;;0.47;0.47;;;;;;;;;;5033007;28;20205;-64
2021/01/29 05:53:55;;;;;;;0.47;0.47;;;;;;;;;;5033390;28;20195;-65
2021/01/29 05:56:40;;;;;;;0.65;0.63;;;;;;;;;;5033452;28;20187;-65
2021/01/29 05:59:09;;;;;;;0.40;0.40;;;;;;;;;;5033080;28;20207;-64
2021/01/29 06:01:47;;;;;;;0.40;0.40;;;;;;;;;;5033049;28;20217;-64
2021/01/29 06:04:27;;;;;;;0.30;0.30;;;;;;;;;;5033117;28;20215;-64
2021/01/29 06:07:11;;;;;;;0.65;0.40;;;;;;;;;;5033334;28;20191;-65
2021/01/29 06:09:40;;;;;;;0.40;0.40;;;;;;;;;;5033469;28;20215;-65
2021/01/29 06:12:36;;;;;;;0.40;0.40;;;;;;;;;;5032628;28;20177;-65
2021/01/29 06:15:08;;;;;;;0.55;0.55;;;;;;;;;;5013232;28;20173;-65
2021/01/29 06:17:53;;;;;;;0.40;0.40;;;;;;;;;;5013156;28;20190;-65
2021/01/29 06:20:37;;;;;;;0.32;0.32;;;;;;;;;;5012942;28;20641;-65
2021/01/29 06:23:22;;;;;;;0.60;0.52;;;;;;;;;;5012953;28;20228;-64
2021/01/29 06:26:07;;;;;;;0.30;0.30;;;;;;;;;;5013115;28;20216;-64
2021/01/29 06:28:51;;;;;;;0.40;0.40;;;;;;;;;;5013125;28;20212;-65
2021/01/29 06:31:36;;;;;;;0.30;0.30;;;;;;;;;;5013327;28;20399;-65
2021/01/29 06:34:20;;;;;;;0.30;0.30;;;;;;;;;;5012895;28;20247;-65
2021/01/29 06:36:52;;;;;;;0.70;0.70;;;;;;;;;;5012901;28;20176;-65
2021/01/29 06:39:18;;;;;;;0.30;0.30;;;;;;;;;;5012707;28;20189;-65
2021/01/29 06:41:49;;;;;;;0.40;0.40;;;;;;;;;;5012923;28;20178;-65
2021/01/29 06:44:18;;;;;;;0.40;0.40;;;;;;;;;;5012605;28;20229;-65
2021/01/29 06:46:44;;;;;;;0.30;0.30;;;;;;;;;;5012747;28;20372;-65
2021/01/29 06:49:26;;;;;;;0.40;0.40;;;;;;;;;;5011874;28;20208;-65
2021/01/29 06:52:03;;;;;;;0.30;0.30;;;;;;;;;;5012693;28;20595;-65
2021/01/29 06:54:45;;;;;;;0.40;0.40;;;;;;;;;;5011192;28;20581;-65
2021/01/29 06:57:29;;;;;;;0.40;0.40;;;;;;;;;;5012481;28;20173;-65
2021/01/29 06:59:58;;;;;;;0.30;0.30;;;;;;;;;;5012212;28;20176;-65
2021/01/29 07:02:40;;;;;;;0.40;0.40;;;;;;;;;;5012430;28;20203;-65
2021/01/29 07:05:06;;;;;;;0.40;0.40;;;;;;;;;;5010973;28;20698;-65
2021/01/29 07:07:32;;;;;;;0.40;0.40;;;;;;;;;;5012316;28;20177;-65
2021/01/29 07:10:10;;;;;;;0.30;0.30;;;;;;;;;;5012049;28;20458;-65
2021/01/29 07:13:03;;;;;;;0.40;0.40;;;;;;;;;;5012013;28;20240;-66
2021/01/29 07:15:34;;;;;;;0.40;0.40;;;;;;;;;;4982028;28;20228;-65
2021/01/29 07:18:00;;;;;;;0.40;0.40;;;;;;;;;;5012242;28;20712;-65
2021/01/29 07:20:44;;;;;;;0.40;0.40;;;;;;;;;;5012084;28;20174;-65
2021/01/29 07:23:16;;;;;;;0.90;0.68;;;;;;;;;;5011914;28;20504;-65
2021/01/29 07:26:05;;;;;;;0.50;0.50;;;;;;;;;;5011931;28;20205;-65
2021/01/29 07:28:42;;;;;;;0.40;0.40;;;;;;;;;;5011973;28;20184;-65
2021/01/29 07:31:35;;;;;;;0.50;0.50;;;;;;;;;;5012050;28;20200;-65
2021/01/29 07:34:24;;;;;;;0.40;0.40;;;;;;;;;;5010943;28;20305;-65
2021/01/29 07:36:50;;;;;;;0.40;0.40;;;;;;;;;;5001732;28;20227;-65
2021/01/29 07:39:28;;;;;;;0.40;0.40;;;;;;;;;;5011655;28;20184;-65
2021/01/29 07:41:54;;;;;;;0.40;0.40;;;;;;;;;;5011883;28;20445;-65
2021/01/29 07:44:42;;;;;;;0.40;0.40;;;;;;;;;;5011545;28;20248;-65
2021/01/29 07:47:22;;;;;;;0.40;0.40;;;;;;;;;;5012241;28;20439;-65
2021/01/29 07:49:51;;;;;;;0.40;0.40;;;;;;;;;;5027942;28;20191;-65
2021/01/29 07:52:29;;;;;;;0.40;0.40;;;;;;;;;;5031137;28;20175;-65
2021/01/29 07:55:02;;;;;;;0.40;0.40;;;;;;;;;;5033953;28;20179;-65
2021/01/29 07:57:36;;;;;;;0.38;0.38;;;;;;;;;;5044240;28;20191;-65
2021/01/29 08:00:15;;;;;;;0.40;0.40;;;;;;;;;;5052287;28;20175;-66
2021/01/29 08:03:00;;;;;;;0.40;0.40;;;;;;;;;;5050829;28;20284;-64
2021/01/29 08:05:28;;;;;;;0.50;0.50;;;;;;;;;;5054886;28;20200;-65
2021/01/29 08:08:05;;;;;;;0.40;0.40;;;;;;;;;;5053524;28;20270;-66
2021/01/29 08:10:31;;;;;;;0.40;0.40;;;;;;;;;;5052451;28;20172;-66
2021/01/29 08:13:20;;;;;;;0.50;0.50;;;;;;;;;;5053248;28;20229;-65
2021/01/29 08:16:05;;;;;;;0.40;0.40;;;;;;;;;;5022748;28;20412;-65
2021/01/29 08:18:34;;;;;;;0.40;0.40;;;;;;;;;;5026749;28;20177;-67
2021/01/29 08:21:19;;;;;;;0.40;0.40;;;;;;;;;;5032928;28;20173;-66
2021/01/29 08:24:04;;;;;;;0.40;0.40;;;;;;;;;;5035286;28;20235;-65
2021/01/29 08:26:50;;;;;;;0.40;0.40;;;;;;;;;;5045020;28;20212;-65
2021/01/29 08:29:30;;;;;;;0.40;0.40;;;;;;;;;;5052932;28;20188;-65
2021/01/29 08:32:02;;;;;;;0.40;0.40;;;;;;;;;;5053373;28;20173;-65
2021/01/29 08:34:48;;;;;;;0.50;0.50;;;;;;;;;;5036455;28;20196;-63
2021/01/29 08:37:49;;;;;;;0.40;0.40;;;;;;;;;;5036740;28;20171;-63
2021/01/29 08:40:27;;;;;;;0.40;0.40;;;;;;;;;;4974284;28;20190;-65
2021/01/29 08:43:05;;;;;;;0.40;0.40;;;;;;;;;;5026584;28;20263;-65
2021/01/29 08:45:49;;;;;;;0.40;0.40;;;;;;;;;;5035659;28;20607;-65
2021/01/29 08:48:18;;;;;;;0.50;0.50;;;;;;;;;;5028509;28;20463;-65
2021/01/29 08:50:57;;;;;;;0.47;0.47;;;;;;;;;;5035553;28;20169;-65
2021/01/29 08:53:41;;;;;;;0.40;0.40;;;;;;;;;;5035163;28;20195;-67
2021/01/29 08:56:07;;;;;;;0.70;0.55;;;;;;;;;;5035176;28;20683;-66
2021/01/29 08:58:42;;;;;;;0.73;0.73;;;;;;;;;;5035418;28;20188;-66
2021/01/29 09:01:12;;;;;;;0.40;0.40;;;;;;;;;;5019170;28;20553;-65
2021/01/29 09:03:42;;;;;;;0.40;0.40;;;;;;;;;;5039590;28;20210;-65
2021/01/29 09:06:14;;;;;;;0.40;0.40;;;;;;;;;;5034124;28;20215;-64
2021/01/29 09:08:41;;;;;;;0.50;0.50;;;;;;;;;;5039189;28;20180;-66
2021/01/29 09:11:20;;;;;;;0.50;0.50;;;;;;;;;;5049223;28;20199;-65
2021/01/29 09:13:52;;;;;;;1.25;1.25;;;;;;;;;;5050645;28;20196;-65
2021/01/29 09:16:47;;;;;;;0.40;0.40;;;;;;;;;;5048217;28;20203;-65
2021/01/29 09:19:14;;;;;;;0.40;0.40;;;;;;;;;;5029723;28;20214;-66
2021/01/29 09:21:56;;;;;;;0.40;0.40;;;;;;;;;;5049356;28;20210;-65
2021/01/29 09:24:31;;;;;;;0.40;0.40;;;;;;;;;;5049751;28;20195;-67
2021/01/29 09:27:06;;;;;;;0.52;0.52;;;;;;;;;;5042660;28;20179;-66
2021/01/29 09:29:35;;;;;;;0.40;0.40;;;;;;;;;;5038400;28;20173;-66
2021/01/29 09:32:14;;;;;;;0.40;0.40;;;;;;;;;;5035882;28;20188;-65
2021/01/29 09:34:44;;;;;;;0.40;0.40;;;;;;;;;;5035815;28;20195;-65
2021/01/29 09:37:12;;;;;;;0.40;0.40;;;;;;;;;;5036471;28;20188;-66
2021/01/29 09:39:44;;;;;;;0.40;0.40;;;;;;;;;;5042748;28;20196;-65
2021/01/29 09:42:12;;;;;;;0.40;0.40;;;;;;;;;;5028325;28;20640;-65
2021/01/29 09:44:57;;;;;;;0.65;0.65;;;;;;;;;;5035508;28;20220;-65
2021/01/29 09:47:24;;;;;;;0.55;0.55;;;;;;;;;;5033890;28;20177;-66
2021/01/29 09:49:58;;;;;;;0.40;0.40;;;;;;;;;;5033228;28;20188;-64
2021/01/29 09:52:30;;;;;;;0.40;0.40;;;;;;;;;;5034762;28;20208;-64
2021/01/29 09:54:59;;;;;;;0.40;0.40;;;;;;;;;;5027621;28;20181;-65
2021/01/29 09:57:33;;;;;;;1.50;0.82;;;;;;;;;;5032961;28;20173;-64
2021/01/29 10:00:02;;;;;;;0.50;0.50;;;;;;;;;;5033965;28;20207;-65
2021/01/29 10:02:44;;;;;;;0.45;0.45;;;;;;;;;;5031296;28;20255;-64
2021/01/29 10:05:09;;;;;;;3.40;0.50;;;;;;;;;;5031434;28;20242;-65
2021/01/29 10:07:37;;;;;;;0.37;0.37;;;;;;;;;;5031413;28;20211;-65
2021/01/29 10:10:11;;;;;;;0.40;0.40;;;;;;;;;;5032005;28;20400;-66
2021/01/29 10:12:41;;;;;;;1.40;1.30;;;;;;;;;;5031948;28;20718;-65
2021/01/29 10:15:12;;;;;;;0.40;0.40;;;;;;;;;;5031832;28;20264;-64
2021/01/29 10:17:43;;;;;;;0.50;0.50;;;;;;;;;;5025241;28;20199;-65
2021/01/29 10:20:12;;;;;;;0.40;0.40;;;;;;;;;;5031429;28;20259;-65
2021/01/29 10:22:38;;;;;;;0.50;0.50;;;;;;;;;;5030841;28;20604;-66
2021/01/29 10:25:10;;;;;;;0.40;0.40;;;;;;;;;;5031452;28;20208;-66
2021/01/29 10:27:41;;;;;;;0.40;0.40;;;;;;;;;;5032270;28;20196;-66
2021/01/29 10:30:10;;;;;;;0.40;0.40;;;;;;;;;;5032046;28;20173;-67
2021/01/29 10:32:36;;;;;;;0.50;0.50;;;;;;;;;;5025984;28;20506;-65
2021/01/29 10:35:05;;;;;;;0.50;0.50;;;;;;;;;;5027967;28;20165;-65
2021/01/29 10:37:36;;;;;;;0.50;0.50;;;;;;;;;;5030219;28;20188;-65
2021/01/29 10:40:17;;;;;;;1.05;0.60;;;;;;;;;;5027797;28;20189;-65
2021/01/29 10:42:51;;;;;;;0.80;0.80;;;;;;;;;;5028088;28;20244;-66
2021/01/29 10:45:21;;;;;;;0.40;0.40;;;;;;;;;;5033839;22;20734;-65
2021/01/29 10:47:57;;;;;;;0.52;0.52;;;;;;;;;;5020272;28;20224;-67
2021/01/29 10:50:23;;;;;;;0.40;0.40;;;;;;;;;;5025408;28;20175;-66
2021/01/29 10:53:01;;;;;;;1.25;0.65;;;;;;;;;;5030076;28;20396;-67
2021/01/29 10:55:31;;;;;;;0.40;0.40;;;;;;;;;;5013089;28;20197;-64
2021/01/29 10:58:16;;;;;;;0.90;0.90;;;;;;;;;;5000995;28;20189;-67
2021/01/29 11:00:42;;;;;;;0.70;0.70;;;;;;;;;;5008058;28;20264;-67
2021/01/29 11:03:10;;;;;;;1.25;1.15;;;;;;;;;;5012514;28;20204;-66
2021/01/29 11:05:41;;;;;;;0.60;0.60;;;;;;;;;;4999772;28;20259;-67
2021/01/29 11:08:22;;;;;;;0.40;0.40;;;;;;;;;;4999290;28;20662;-66
2021/01/29 11:10:51;;;;;;;0.40;0.40;;;;;;;;;;5009115;28;20223;-66
2021/01/29 11:13:22;;;;;;;0.40;0.40;;;;;;;;;;5006501;28;20646;-67
2021/01/29 11:15:55;;;;;;;2.67;0.50;;;;;;;;;;5001589;28;20185;-66
2021/01/29 11:18:29;;;;;;;0.40;0.40;;;;;;;;;;4995937;28;20645;-67
2021/01/29 11:21:13;;;;;;;0.50;0.50;;;;;;;;;;5009833;28;20216;-65
2021/01/29 11:23:44;;;;;;;13.25;0.85;;;;;;;;;;5003281;28;20190;-66
2021/01/29 11:26:30;;;;;;;0.40;0.40;;;;;;;;;;5005024;28;20675;-65
2021/01/29 11:29:03;;;;;;;0.40;0.40;;;;;;;;;;5008868;28;20217;-65
2021/01/29 11:31:41;;;;;;;0.40;0.40;;;;;;;;;;5005005;28;20221;-65
2021/01/29 11:34:12;;;;;;;0.60;0.60;;;;;;;;;;4998585;28;20198;-65
2021/01/29 11:36:42;;;;;;;0.50;0.50;;;;;;;;;;5007939;28;20272;-66
2021/01/29 11:39:12;;;;;;;0.40;0.40;;;;;;;;;;5001572;28;20182;-65
2021/01/29 11:41:49;;;;;;;0.40;0.40;;;;;;;;;;5007500;28;20176;-65
2021/01/29 11:44:34;;;;;;;1.83;0.60;;;;;;;;;;5010135;28;20220;-65
2021/01/29 11:47:03;;;;;;;0.40;0.40;;;;;;;;;;5004663;28;20181;-65
2021/01/29 11:49:33;;;;;;;0.98;0.98;;;;;;;;;;5010504;28;20170;-66
2021/01/29 11:52:05;;;;;;;0.40;0.40;;;;;;;;;;5011060;28;20181;-64
2021/01/29 11:54:42;;;;;;;1.35;0.55;;;;;;;;;;5005177;28;20198;-63
2021/01/29 11:57:14;;;;;;;0.40;0.40;;;;;;;;;;5003470;28;20700;-63
2021/01/29 11:59:56;;;;;;;0.57;0.57;;;;;;;;;;4991365;28;20186;-65
2021/01/29 12:02:33;;;;;;;1.80;1.10;;;;;;;;;;4994725;28;20178;-66
2021/01/29 12:05:09;;;;;;;0.57;0.50;;;;;;;;;;4990071;28;20213;-66
2021/01/29 12:08:03;;;;;;;2.15;1.15;;;;;;;;;;4990912;28;20723;-64
2021/01/29 12:10:35;;;;;;;0.50;0.50;;;;;;;;;;4990185;28;20531;-65
2021/01/29 12:13:07;;;;;;;0.40;0.40;;;;;;;;;;4990922;28;20179;-65
2021/01/29 12:15:33;;;;;;;0.40;0.40;;;;;;;;;;4991319;28;20201;-66
2021/01/29 12:18:00;;;;;;;0.40;0.40;;;;;;;;;;4991694;28;20650;-67
2021/01/29 12:20:28;;;;;;;1.08;0.80;;;;;;;;;;4991395;28;20425;-67
2021/01/29 12:22:54;;;;;;;0.52;0.52;;;;;;;;;;5007734;28;20174;-67
2021/01/29 12:25:28;;;;;;;0.40;0.40;;;;;;;;;;5009920;28;20262;-66
2021/01/29 12:27:59;;;;;;;0.40;0.40;;;;;;;;;;5011233;28;20952;-66
2021/01/29 12:30:31;;;;;;;0.60;0.50;;;;;;;;;;5010857;28;20174;-67
2021/01/29 12:33:26;;;;;;;0.52;0.52;;;;;;;;;;5010904;28;20645;-67
2021/01/29 12:35:55;;;;;;;0.45;0.45;;;;;;;;;;5003163;28;20190;-66
2021/01/29 12:38:24;;;;;;;0.50;0.50;;;;;;;;;;5015087;28;20202;-66
2021/01/29 12:41:08;;;;;;;0.40;0.40;;;;;;;;;;5012935;28;20259;-67
2021/01/29 12:43:53;;;;;;;0.45;0.45;;;;;;;;;;5013754;28;20181;-67
2021/01/29 12:46:27;;;;;;;0.40;0.40;;;;;;;;;;5013430;28;20191;-66
2021/01/29 12:49:16;;;;;;;0.50;0.50;;;;;;;;;;5014913;28;20180;-66
2021/01/29 12:52:17;;;;;;;0.40;0.40;;;;;;;;;;5014676;28;20220;-66
2021/01/29 12:54:50;;;;;;;0.40;0.40;;;;;;;;;;4953679;28;20211;-66
2021/01/29 12:57:19;;;;;;;0.40;0.40;;;;;;;;;;5004532;28;20178;-67
2021/01/29 12:59:50;;;;;;;0.77;0.70;;;;;;;;;;5014032;28;20197;-67
2021/01/29 13:02:21;;;;;;;0.75;0.75;;;;;;;;;;5014242;28;20176;-66
2021/01/29 13:04:55;;;;;;;0.95;0.60;;;;;;;;;;5014038;28;20209;-67
2021/01/29 13:07:24;;;;;;;0.40;0.40;;;;;;;;;;5014389;28;20168;-66
2021/01/29 13:09:50;;;;;;;0.40;0.40;;;;;;;;;;5013224;28;20641;-66
2021/01/29 13:12:22;;;;;;;0.40;0.40;;;;;;;;;;4994736;28;20170;-66
2021/01/29 13:14:57;;;;;;;0.40;0.40;;;;;;;;;;4994433;28;20464;-67
2021/01/29 13:17:27;;;;;;;0.40;0.40;;;;;;;;;;4994243;28;20213;-67
2021/01/29 13:20:02;;;;;;;0.40;0.40;;;;;;;;;;4993383;28;20317;-67
2021/01/29 13:22:34;;;;;;;0.40;0.40;;;;;;;;;;4993927;28;20597;-67
2021/01/29 13:25:09;;;;;;;0.40;0.40;;;;;;;;;;4993992;28;20222;-67
2021/01/29 13:27:56;;;;;;;0.40;0.40;;;;;;;;;;4994000;28;20210;-66
2021/01/29 13:30:22;;;;;;;0.50;0.50;;;;;;;;;;4986496;28;20480;-67
2021/01/29 13:32:48;;;;;;;0.40;0.40;;;;;;;;;;4994175;28;20175;-67
2021/01/29 13:35:20;;;;;;;0.40;0.40;;;;;;;;;;4993795;28;20206;-66
2021/01/29 13:37:46;;;;;;;0.40;0.40;;;;;;;;;;4993844;28;20216;-67
2021/01/29 13:40:16;;;;;;;0.50;0.50;;;;;;;;;;4993715;28;20233;-66
2021/01/29 13:42:43;;;;;;;0.40;0.40;;;;;;;;;;4993259;28;20178;-66
2021/01/29 13:45:11;;;;;;;0.75;0.50;;;;;;;;;;4993780;28;20208;-65
2021/01/29 13:47:41;;;;;;;0.40;0.40;;;;;;;;;;4993643;28;20542;-65
2021/01/29 13:50:21;;;;;;;0.50;0.50;;;;;;;;;;4993764;28;20224;-65
2021/01/29 13:52:51;;;;;;;0.70;0.70;;;;;;;;;;4993351;28;20660;-65
2021/01/29 13:55:38;;;;;;;0.50;0.50;;;;;;;;;;4993235;28;20618;-65
2021/01/29 13:58:08;;;;;;;0.40;0.40;;;;;;;;;;4992706;28;20182;-66
2021/01/29 14:00:49;;;;;;;0.40;0.40;;;;;;;;;;4992980;28;20178;-65
2021/01/29 14:03:26;;;;;;;0.40;0.40;;;;;;;;;;4993663;28;20193;-65
2021/01/29 14:05:52;;;;;;;0.50;0.50;;;;;;;;;;4992777;28;20186;-67
2021/01/29 14:08:19;;;;;;;0.60;0.60;;;;;;;;;;4993366;28;20605;-65
2021/01/29 14:10:57;;;;;;;0.40;0.40;;;;;;;;;;4992937;28;20224;-67
2021/01/29 14:13:30;;;;;;;1.15;0.60;;;;;;;;;;4993230;28;20178;-67
2021/01/29 14:16:14;;;;;;;0.43;0.43;;;;;;;;;;4994106;28;20170;-65
2021/01/29 14:18:40;;;;;;;0.40;0.40;;;;;;;;;;4999512;28;20781;-66
2021/01/29 14:21:11;;;;;;;0.40;0.40;;;;;;;;;;4996190;28;20174;-66
2021/01/29 14:23:48;;;;;;;0.40;0.40;;;;;;;;;;4993172;28;20692;-66
2021/01/29 14:26:37;;;;;;;0.73;0.73;;;;;;;;;;4993719;28;20217;-65
2021/01/29 14:29:11;;;;;;;0.60;0.60;;;;;;;;;;4987507;28;20190;-65
2021/01/29 14:31:46;;;;;;;0.70;0.60;;;;;;;;;;4993120;28;20210;-66
2021/01/29 14:34:14;;;;;;;0.65;0.65;;;;;;;;;;4992789;28;20193;-66
2021/01/29 14:36:46;;;;;;;0.50;0.50;;;;;;;;;;4992525;28;20178;-66
2021/01/29 14:39:24;;;;;;;0.60;0.60;;;;;;;;;;4992068;28;20241;-66
2021/01/29 14:42:08;;;;;;;0.40;0.40;;;;;;;;;;4992807;28;20175;-66
2021/01/29 14:44:37;;;;;;;0.60;0.60;;;;;;;;;;4992372;28;20559;-65
2021/01/29 14:47:15;;;;;;;0.50;0.50;;;;;;;;;;4992199;28;20170;-66
2021/01/29 14:49:41;;;;;;;1.35;1.25;;;;;;;;;;4991741;28;20599;-66
2021/01/29 14:52:10;;;;;;;0.40;0.40;;;;;;;;;;4992424;28;20170;-65
2021/01/29 14:54:37;;;;;;;1.73;0.70;;;;;;;;;;4992414;28;20430;-65
2021/01/29 14:57:08;;;;;;;0.40;0.40;;;;;;;;;;4992305;28;20202;-66
2021/01/29 14:59:37;;;;;;;0.40;0.40;;;;;;;;;;4991793;28;20269;-66
2021/01/29 15:02:11;;;;;;;0.60;0.60;;;;;;;;;;4991737;28;20196;-62
2021/01/29 15:04:37;;;;;;;0.50;0.50;;;;;;;;;;4992195;28;20615;-66
2021/01/29 15:07:05;;;;;;;0.40;0.40;;;;;;;;;;4995827;28;20177;-65
2021/01/29 15:09:38;;;;;;;0.40;0.40;;;;;;;;;;5010212;28;20170;-60
2021/01/29 15:12:08;;;;;;;0.40;0.40;;;;;;;;;;5009778;28;20224;-66
2021/01/29 15:14:51;;;;;;;0.70;0.70;;;;;;;;;;5011918;28;20216;-65
2021/01/29 15:17:29;;;;;;;0.40;0.40;;;;;;;;;;5010011;28;20232;-65
2021/01/29 15:20:14;;;;;;;0.90;0.90;;;;;;;;;;5011737;28;20180;-66
2021/01/29 15:22:40;;;;;;;0.50;0.50;;;;;;;;;;5011319;28;20218;-66
2021/01/29 15:25:21;;;;;;;0.60;0.60;;;;;;;;;;5011253;28;20233;-66